Time;durP1;ratioP1;P1;durP2;ratioP2;P2;SDS_P1;SDS_P2;PMS_P1;PMS_P2;Temp;Humidity;BMP_temperature;BMP_pressure;BME280_temperature;BME280_humidity;BME280_pressure;Samples;Min_cycle;Max_cycle;Signal;HPM_P1;HPM_P2
2023/07/11 00:00:46;;;;;;;10.18;5.25;;;25.90;68.10;;;;;;5075846;28;20431;-72
2023/07/11 00:03:12;;;;;;;8.02;5.43;;;25.90;68.10;;;;;;5076049;28;20390;-72
2023/07/11 00:05:37;;;;;;;6.60;5.00;;;25.80;68.60;;;;;;5075885;28;20036;-75
2023/07/11 00:08:04;;;;;;;11.82;5.50;;;25.80;68.90;;;;;;5074892;28;20033;-72
2023/07/11 00:10:30;;;;;;;13.38;5.50;;;25.70;69.30;;;;;;5076009;28;20028;-73
2023/07/11 00:12:55;;;;;;;9.18;5.15;;;25.70;69.70;;;;;;5075916;28;20025;-73
2023/07/11 00:15:21;;;;;;;7.03;5.47;;;25.70;70.10;;;;;;5075994;28;20389;-73
2023/07/11 00:17:48;;;;;;;11.98;5.53;;;25.60;70.40;;;;;;5075235;28;20024;-74
2023/07/11 00:20:15;;;;;;;9.35;5.93;;;25.50;71.00;;;;;;5075959;28;20075;-73
2023/07/11 00:22:42;;;;;;;9.20;6.18;;;25.50;71.20;;;;;;5075482;28;20052;-74
2023/07/11 00:25:09;;;;;;;7.47;5.25;;;25.50;71.60;;;;;;5075979;28;20115;-74
2023/07/11 00:27:35;;;;;;;10.43;5.60;;;25.50;71.90;;;;;;5075412;28;20111;-73
2023/07/11 00:30:01;;;;;;;9.15;6.40;;;25.50;71.90;;;;;;5074991;28;20505;-71
2023/07/11 00:32:27;;;;;;;8.10;5.78;;;25.50;72.00;;;;;;5075654;28;20056;-72
2023/07/11 00:34:52;;;;;;;8.45;5.63;;;25.50;72.50;;;;;;5075153;28;20067;-72
2023/07/11 00:37:18;;;;;;;10.27;5.80;;;25.50;72.80;;;;;;5075636;28;20059;-73
2023/07/11 00:39:44;;;;;;;11.95;6.38;;;25.40;73.00;;;;;;5074954;28;20493;-72
2023/07/11 00:42:10;;;;;;;12.07;6.15;;;25.40;73.00;;;;;;5075609;28;20082;-72
2023/07/11 00:44:52;;;;;;;9.20;5.75;;;25.50;73.10;;;;;;5075368;28;20032;-72
2023/07/11 00:47:18;;;;;;;9.82;6.05;;;25.50;73.20;;;;;;5075339;28;20051;-71
2023/07/11 00:49:46;;;;;;;8.57;5.68;;;25.40;73.70;;;;;;5074667;28;20431;-73
2023/07/11 00:52:15;;;;;;;10.52;6.20;;;25.40;74.40;;;;;;5075509;28;20054;-72
2023/07/11 00:54:46;;;;;;;9.63;5.90;;;25.40;74.60;;;;;;5075367;28;20021;-72
2023/07/11 00:57:12;;;;;;;10.23;6.18;;;25.30;75.40;;;;;;5075194;28;20207;-72
2023/07/11 00:59:38;;;;;;;9.48;6.38;;;25.20;75.80;;;;;;5075203;28;20474;-72
2023/07/11 01:02:12;;;;;;;8.30;6.18;;;25.10;76.50;;;;;;5074840;28;20036;-73
2023/07/11 01:04:39;;;;;;;9.10;5.97;;;25.10;77.00;;;;;;5075549;28;20020;-73
2023/07/11 01:07:08;;;;;;;12.18;5.47;;;25.00;77.40;;;;;;5074502;28;20079;-73
2023/07/11 01:09:34;;;;;;;8.70;6.15;;;25.00;77.60;;;;;;5075096;28;20020;-72
2023/07/11 01:12:05;;;;;;;9.15;6.25;;;24.90;77.90;;;;;;5074252;28;20055;-73
2023/07/11 01:14:31;;;;;;;16.70;6.95;;;24.90;77.80;;;;;;5075137;28;20113;-73
2023/07/11 01:16:56;;;;;;;17.27;6.72;;;24.90;76.90;;;;;;5074561;28;20024;-73
2023/07/11 01:19:24;;;;;;;7.90;6.45;;;24.90;77.10;;;;;;5074894;28;20032;-72
2023/07/11 01:21:50;;;;;;;11.05;6.55;;;24.90;76.90;;;;;;5074410;28;20028;-73
2023/07/11 01:24:16;;;;;;;10.02;6.43;;;24.80;77.10;;;;;;5074544;28;20127;-73
2023/07/11 01:26:41;;;;;;;9.30;6.97;;;24.80;77.40;;;;;;5074861;28;20060;-72
2023/07/11 01:29:08;;;;;;;9.07;6.43;;;24.80;77.40;;;;;;5074022;28;20079;-73
2023/07/11 01:31:34;;;;;;;11.32;6.60;;;24.80;77.80;;;;;;5075232;28;20523;-72
2023/07/11 01:34:03;;;;;;;8.18;6.65;;;24.80;78.00;;;;;;5075077;28;20028;-73
2023/07/11 01:36:28;;;;;;;10.40;7.07;;;24.80;78.00;;;;;;5075500;28;20386;-73
2023/07/11 01:38:56;;;;;;;8.80;6.60;;;24.70;78.40;;;;;;5075337;28;20027;-73
2023/07/11 01:41:22;;;;;;;8.93;6.35;;;24.60;78.70;;;;;;5075367;28;20051;-73
2023/07/11 01:43:48;;;;;;;10.15;7.10;;;24.60;79.10;;;;;;5074517;28;20027;-73
2023/07/11 01:46:14;;;;;;;9.18;6.47;;;24.60;79.20;;;;;;5074875;28;20087;-72
2023/07/11 01:48:40;;;;;;;12.75;6.72;;;24.60;79.50;;;;;;5074852;28;20032;-73
2023/07/11 01:51:05;;;;;;;8.95;7.32;;;24.60;79.70;;;;;;5073910;28;20487;-73
2023/07/11 01:53:31;;;;;;;8.75;6.70;;;24.50;79.90;;;;;;5074005;28;20029;-73
2023/07/11 01:55:58;;;;;;;7.22;6.22;;;24.50;80.30;;;;;;5073603;28;20020;-73
2023/07/11 01:58:24;;;;;;;9.35;7.30;;;24.50;80.50;;;;;;5073962;28;20036;-73
2023/07/11 02:00:49;;;;;;;12.63;7.38;;;24.50;80.70;;;;;;5073872;28;20033;-73
2023/07/11 02:03:15;;;;;;;11.52;7.53;;;24.50;80.70;;;;;;5075367;28;20028;-73
2023/07/11 02:05:40;;;;;;;9.65;6.65;;;24.40;81.00;;;;;;5074909;28;20111;-72
2023/07/11 02:08:06;;;;;;;13.75;6.93;;;24.40;81.50;;;;;;5073847;28;20418;-73
2023/07/11 02:10:32;;;;;;;8.50;6.85;;;24.30;81.80;;;;;;5073673;28;20037;-73
2023/07/11 02:12:58;;;;;;;10.43;7.25;;;24.30;81.90;;;;;;5073533;28;20176;-73
2023/07/11 02:15:23;;;;;;;10.98;7.18;;;24.30;82.40;;;;;;5073889;28;20024;-72
2023/07/11 02:17:49;;;;;;;10.70;6.82;;;24.20;82.80;;;;;;5073302;28;20033;-76
2023/07/11 02:20:15;;;;;;;8.98;6.18;;;24.20;83.10;;;;;;5072366;28;20043;-73
2023/07/11 02:22:40;;;;;;;9.45;7.10;;;24.20;83.70;;;;;;5073389;28;20060;-73
2023/07/11 02:25:07;;;;;;;12.45;7.18;;;24.20;83.70;;;;;;5073297;28;20103;-73
2023/07/11 02:27:32;;;;;;;12.55;7.38;;;24.20;83.70;;;;;;5073657;28;20075;-74
2023/07/11 02:29:58;;;;;;;11.55;7.53;;;24.20;84.40;;;;;;5073799;28;20477;-73
2023/07/11 02:32:24;;;;;;;9.70;6.85;;;24.10;84.20;;;;;;5073610;28;20376;-73
2023/07/11 02:34:50;;;;;;;10.00;6.60;;;24.10;84.20;;;;;;5073335;28;20489;-72
2023/07/11 02:37:16;;;;;;;11.60;7.43;;;24.10;84.40;;;;;;5073431;28;20089;-72
2023/07/11 02:39:41;;;;;;;8.35;6.75;;;24.10;84.60;;;;;;5073586;28;20298;-73
2023/07/11 02:42:07;;;;;;;9.90;6.57;;;24.00;84.60;;;;;;5072926;28;20099;-72
2023/07/11 02:44:33;;;;;;;10.43;7.53;;;24.00;84.70;;;;;;5073214;28;20461;-72
2023/07/11 02:46:58;;;;;;;12.65;7.20;;;24.00;84.50;;;;;;5072305;28;20094;-72
2023/07/11 02:49:24;;;;;;;9.05;7.32;;;24.00;84.70;;;;;;5072698;28;20396;-73
2023/07/11 02:51:49;;;;;;;10.35;6.55;;;24.00;84.50;;;;;;5073082;28;20036;-72
2023/07/11 02:54:15;;;;;;;8.77;6.95;;;24.00;84.40;;;;;;5072939;28;20431;-73
2023/07/11 02:56:41;;;;;;;10.77;7.20;;;24.10;84.40;;;;;;5073044;28;20028;-72
2023/07/11 02:59:06;;;;;;;9.93;6.85;;;24.00;84.00;;;;;;5071384;28;20465;-72
2023/07/11 03:01:33;;;;;;;13.23;6.93;;;24.00;84.20;;;;;;5072848;28;20103;-72
2023/07/11 03:03:59;;;;;;;11.13;7.03;;;24.00;84.30;;;;;;5072299;28;20111;-73
2023/07/11 03:06:24;;;;;;;8.98;6.93;;;24.00;84.40;;;;;;5072350;28;20112;-73
2023/07/11 03:08:50;;;;;;;9.75;6.93;;;24.00;84.50;;;;;;5085694;28;20032;-72
2023/07/11 03:11:16;;;;;;;8.55;6.43;;;24.00;84.40;;;;;;5082664;28;20047;-72
2023/07/11 03:13:42;;;;;;;9.20;6.50;;;24.00;84.10;;;;;;5088115;28;20081;-72
2023/07/11 03:16:08;;;;;;;8.70;6.47;;;24.00;84.10;;;;;;5073263;28;20103;-73
2023/07/11 03:18:34;;;;;;;13.35;7.13;;;24.00;84.20;;;;;;5072401;28;20372;-72
2023/07/11 03:21:01;;;;;;;11.38;6.47;;;24.10;84.00;;;;;;5057106;28;20108;-72
2023/07/11 03:23:28;;;;;;;14.30;7.25;;;24.00;84.10;;;;;;5052721;28;20021;-73
2023/07/11 03:25:53;;;;;;;10.25;6.55;;;24.00;84.10;;;;;;5056847;28;20483;-73
2023/07/11 03:28:19;;;;;;;8.98;6.70;;;24.00;84.10;;;;;;5072231;28;20083;-72
2023/07/11 03:30:46;;;;;;;9.88;6.93;;;23.90;84.50;;;;;;5072270;28;20039;-72
2023/07/11 03:33:11;;;;;;;10.07;7.38;;;24.00;84.40;;;;;;5072060;28;20074;-73
2023/07/11 03:35:37;;;;;;;9.68;6.93;;;24.00;84.60;;;;;;5072175;28;20385;-72
2023/07/11 03:38:03;;;;;;;9.18;6.90;;;24.00;84.70;;;;;;5071901;28;20035;-73
2023/07/11 03:40:29;;;;;;;9.15;6.85;;;23.90;84.90;;;;;;5072044;28;20489;-72
2023/07/11 03:42:56;;;;;;;8.82;6.63;;;23.90;85.20;;;;;;5071515;28;20035;-72
2023/07/11 03:45:21;;;;;;;13.48;7.45;;;23.90;84.90;;;;;;5070805;28;20029;-72
2023/07/11 03:47:48;;;;;;;15.68;7.32;;;24.00;84.90;;;;;;5069069;28;20125;-72
2023/07/11 03:50:14;;;;;;;11.93;7.32;;;23.90;85.00;;;;;;5069997;28;20429;-72
2023/07/11 03:52:40;;;;;;;14.65;7.00;;;23.90;85.20;;;;;;5072332;28;20055;-72
2023/07/11 03:55:06;;;;;;;9.68;6.55;;;23.90;85.40;;;;;;5072080;28;20461;-72
2023/07/11 03:57:31;;;;;;;10.07;6.45;;;23.90;85.40;;;;;;5072428;28;20426;-72
2023/07/11 03:59:57;;;;;;;10.93;6.80;;;23.90;85.40;;;;;;5072064;28;20150;-72
2023/07/11 04:02:23;;;;;;;10.60;6.90;;;24.00;85.50;;;;;;5071871;28;20033;-71
2023/07/11 04:04:48;;;;;;;13.23;7.70;;;24.00;85.60;;;;;;5072362;28;20031;-73
2023/07/11 04:07:14;;;;;;;11.05;6.95;;;24.00;85.40;;;;;;5071982;28;20083;-73
2023/07/11 04:09:40;;;;;;;9.90;7.22;;;24.10;85.20;;;;;;5072384;28;20028;-73
2023/07/11 04:12:07;;;;;;;13.10;6.38;;;24.10;84.50;;;;;;5071551;28;20046;-73
2023/07/11 04:14:32;;;;;;;9.52;6.88;;;24.20;83.90;;;;;;5071998;28;20477;-73
2023/07/11 04:16:58;;;;;;;11.63;7.05;;;24.20;83.40;;;;;;5072346;28;20043;-73
2023/07/11 04:19:23;;;;;;;11.02;6.90;;;24.30;83.00;;;;;;5070697;28;20024;-72
2023/07/11 04:21:49;;;;;;;10.77;6.78;;;24.30;83.00;;;;;;5070154;28;20062;-73
2023/07/11 04:24:15;;;;;;;7.47;6.18;;;24.30;83.10;;;;;;5070944;28;20031;-73
2023/07/11 04:26:40;;;;;;;9.68;7.13;;;24.40;82.30;;;;;;5071911;28;20096;-72
2023/07/11 04:29:06;;;;;;;13.40;7.38;;;24.50;83.10;;;;;;5071785;28;20438;-68
2023/07/11 04:31:32;;;;;;;15.45;6.70;;;24.60;82.30;;;;;;5072190;28;20029;-69
2023/07/11 04:33:57;;;;;;;9.55;6.82;;;24.60;81.50;;;;;;5075975;28;20150;-69
2023/07/11 04:36:23;;;;;;;9.13;6.20;;;24.70;81.20;;;;;;5074555;28;20406;-69
2023/07/11 04:38:49;;;;;;;7.00;6.10;;;24.70;81.20;;;;;;5074099;28;20035;-70
2023/07/11 04:41:14;;;;;;;10.88;6.82;;;24.70;80.40;;;;;;5074986;28;20028;-69
2023/07/11 04:43:40;;;;;;;8.80;6.50;;;24.90;80.20;;;;;;5075446;28;20024;-69
2023/07/11 04:46:06;;;;;;;9.85;6.43;;;24.90;80.20;;;;;;5074798;28;20111;-69
2023/07/11 04:48:33;;;;;;;7.88;6.00;;;25.10;80.10;;;;;;5075031;28;20499;-78
2023/07/11 04:51:02;;;;;;;11.63;6.55;;;25.20;78.70;;;;;;5075487;28;20033;-76
2023/07/11 04:53:29;;;;;;;10.60;6.45;;;25.30;78.30;;;;;;5075884;28;20116;-76
2023/07/11 04:55:56;;;;;;;9.88;5.63;;;25.40;77.70;;;;;;5075769;28;20035;-76
2023/07/11 04:58:22;;;;;;;9.45;6.18;;;25.50;76.10;;;;;;5074954;28;20457;-74
2023/07/11 05:00:47;;;;;;;12.75;6.60;;;25.50;76.30;;;;;;5075221;28;20039;-81
2023/07/11 05:03:13;;;;;;;8.48;6.65;;;25.60;75.70;;;;;;5074751;28;20050;-76
2023/07/11 05:05:38;;;;;;;10.18;6.22;;;25.70;76.90;;;;;;5075439;28;20020;-82
2023/07/11 05:08:04;;;;;;;8.50;6.65;;;25.80;77.20;;;;;;5074048;28;20028;-79
2023/07/11 05:10:30;;;;;;;10.00;6.00;;;26.00;76.30;;;;;;5074995;28;20107;-74
2023/07/11 05:12:55;;;;;;;8.02;6.15;;;26.30;76.30;;;;;;5074697;28;20029;-74
2023/07/11 05:15:21;;;;;;;10.55;6.18;;;26.50;73.20;;;;;;5074132;28;20039;-74
2023/07/11 05:17:46;;;;;;;10.73;6.22;;;26.70;72.90;;;;;;5074765;28;20037;-77
2023/07/11 05:20:12;;;;;;;6.65;5.07;;;26.90;70.50;;;;;;5074435;28;20102;-76
2023/07/11 05:22:38;;;;;;;9.50;5.55;;;26.90;70.60;;;;;;5074299;28;20040;-75
2023/07/11 05:25:04;;;;;;;7.40;5.78;;;26.90;70.10;;;;;;5074761;28;20036;-75
2023/07/11 05:27:30;;;;;;;10.85;5.93;;;26.90;69.50;;;;;;5073929;28;20044;-75
2023/07/11 05:29:56;;;;;;;10.30;6.20;;;26.70;69.50;;;;;;5073861;28;20035;-76
2023/07/11 05:32:22;;;;;;;10.23;5.95;;;26.60;70.60;;;;;;5073960;28;20104;-76
2023/07/11 05:34:47;;;;;;;6.63;5.88;;;26.40;70.70;;;;;;5073308;28;20453;-76
2023/07/11 05:37:13;;;;;;;7.50;5.60;;;26.40;70.50;;;;;;5074018;28;20074;-77
2023/07/11 05:39:39;;;;;;;7.32;5.72;;;26.70;69.80;;;;;;5074328;28;20132;-77
2023/07/11 05:42:05;;;;;;;7.38;5.38;;;27.00;68.30;;;;;;5074054;28;20068;-77
2023/07/11 05:44:31;;;;;;;10.05;5.97;;;27.30;68.70;;;;;;5072935;28;20066;-77
2023/07/11 05:46:57;;;;;;;8.07;5.18;;;27.80;66.50;;;;;;5073616;28;20059;-77
2023/07/11 05:49:22;;;;;;;10.98;5.15;;;28.20;65.90;;;;;;5073060;28;20043;-76
2023/07/11 05:51:49;;;;;;;9.35;5.07;;;28.60;64.70;;;;;;5073589;28;20107;-77
2023/07/11 05:54:15;;;;;;;5.97;5.15;;;29.10;63.70;;;;;;5073655;28;20035;-74
2023/07/11 05:56:41;;;;;;;9.52;5.68;;;29.40;61.40;;;;;;5073966;28;20033;-75
2023/07/11 05:59:07;;;;;;;6.78;4.85;;;29.70;59.50;;;;;;5073833;28;20028;-75
2023/07/11 06:01:33;;;;;;;8.55;5.35;;;30.10;58.10;;;;;;5073055;28;20465;-75
2023/07/11 06:04:11;;;;;;;7.35;5.20;;;30.40;58.00;;;;;;5073675;28;20036;-75
2023/07/11 06:06:41;;;;;;;7.28;4.80;;;30.50;57.40;;;;;;5073538;28;20047;-76
2023/07/11 06:09:15;;;;;;;8.90;4.70;;;30.60;55.80;;;;;;5073141;28;20484;-75
2023/07/11 06:11:42;;;;;;;6.50;5.00;;;31.00;55.20;;;;;;5073752;28;20093;-76
2023/07/11 06:14:09;;;;;;;7.13;4.43;;;31.20;53.70;;;;;;5073649;28;20028;-76
2023/07/11 06:16:35;;;;;;;8.15;4.20;;;31.30;53.60;;;;;;5073540;28;20029;-75
2023/07/11 06:19:01;;;;;;;5.00;4.50;;;31.70;53.20;;;;;;5073107;28;20388;-76
2023/07/11 06:21:26;;;;;;;7.45;4.28;;;32.20;52.60;;;;;;5073121;28;20051;-77
2023/07/11 06:23:52;;;;;;;6.18;4.18;;;32.20;51.10;;;;;;5073342;28;20032;-76
2023/07/11 06:26:17;;;;;;;8.40;4.07;;;32.20;50.50;;;;;;5073339;28;20055;-76
2023/07/11 06:28:43;;;;;;;5.53;4.07;;;32.10;49.90;;;;;;5073796;28;20020;-77
2023/07/11 06:31:11;;;;;;;8.50;4.47;;;32.30;50.30;;;;;;5073356;28;20067;-78
2023/07/11 06:33:37;;;;;;;4.93;3.63;;;32.90;48.60;;;;;;5073716;28;20033;-77
2023/07/11 06:36:04;;;;;;;4.78;3.92;;;33.20;47.40;;;;;;5073360;28;20476;-78
2023/07/11 06:38:30;;;;;;;5.20;3.60;;;33.50;47.30;;;;;;5072938;28;20073;-77
2023/07/11 06:40:57;;;;;;;5.35;3.78;;;34.00;47.10;;;;;;5073062;28;20028;-77
2023/07/11 06:43:24;;;;;;;6.57;3.97;;;34.30;45.30;;;;;;5072670;28;20028;-77
2023/07/11 06:45:55;;;;;;;6.60;4.00;;;34.90;45.30;;;;;;5073226;28;20078;-78
2023/07/11 06:48:23;;;;;;;6.95;4.00;;;35.40;45.20;;;;;;5072888;28;20040;-78
2023/07/11 06:50:51;;;;;;;6.53;3.72;;;35.50;43.10;;;;;;5073323;28;20043;-78
2023/07/11 06:53:18;;;;;;;5.15;3.72;;;35.30;43.20;;;;;;5072677;28;20461;-77
2023/07/11 06:55:48;;;;;;;7.82;4.50;;;35.40;43.50;;;;;;5072475;28;20350;-78
2023/07/11 06:58:14;;;;;;;;;;;35.60;43.10;;;;;;5073057;28;20108;-73
2023/07/11 07:00:40;;;;;;;6.65;3.70;;;36.10;43.30;;;;;;5072964;28;19944;-75
2023/07/11 07:03:12;;;;;;;6.78;4.07;;;36.00;42.70;;;;;;5073140;28;20032;-76
2023/07/11 07:05:49;;;;;;;5.68;3.90;;;36.10;42.90;;;;;;5073098;28;20031;-76
2023/07/11 07:08:15;;;;;;;6.07;3.85;;;36.40;41.90;;;;;;5072121;28;20024;-74
2023/07/11 07:10:41;;;;;;;10.57;3.63;;;36.50;41.00;;;;;;5072813;28;20028;-76
2023/07/11 07:13:06;;;;;;;4.85;3.78;;;36.60;40.10;;;;;;5072669;28;20087;-78
2023/07/11 07:15:32;;;;;;;6.03;3.70;;;36.60;40.00;;;;;;5072080;28;20339;-77
2023/07/11 07:17:57;;;;;;;6.43;3.83;;;36.80;40.40;;;;;;5072645;28;20024;-76
2023/07/11 07:20:23;;;;;;;6.07;3.67;;;36.90;39.60;;;;;;5072287;28;20443;-76
2023/07/11 07:22:49;;;;;;;6.07;3.92;;;37.10;39.40;;;;;;5072620;28;20036;-76
2023/07/11 07:25:14;;;;;;;6.25;3.80;;;37.20;39.50;;;;;;5072673;28;20470;-76
2023/07/11 07:27:40;;;;;;;4.95;4.20;;;37.60;39.10;;;;;;5072568;28;20046;-75
2023/07/11 07:30:06;;;;;;;4.55;3.78;;;37.90;39.10;;;;;;5072033;28;20028;-76
2023/07/11 07:32:32;;;;;;;7.55;4.13;;;38.10;38.00;;;;;;5072333;28;20032;-76
2023/07/11 07:34:58;;;;;;;6.97;3.65;;;38.40;38.10;;;;;;5071964;28;20032;-76
2023/07/11 07:37:24;;;;;;;8.07;3.67;;;38.40;38.70;;;;;;5072100;28;20358;-76
2023/07/11 07:39:50;;;;;;;8.70;4.20;;;38.00;38.60;;;;;;5072614;28;20074;-76
2023/07/11 07:42:16;;;;;;;6.10;4.07;;;37.90;38.80;;;;;;5072447;28;20477;-76
2023/07/11 07:44:42;;;;;;;5.93;4.00;;;38.10;39.40;;;;;;5071612;28;20024;-76
2023/07/11 07:47:07;;;;;;;7.60;4.00;;;38.50;38.90;;;;;;5072306;28;20048;-77
2023/07/11 07:49:33;;;;;;;6.55;3.78;;;38.40;38.40;;;;;;5072036;28;20025;-77
2023/07/11 07:51:58;;;;;;;6.47;4.53;;;38.30;38.60;;;;;;5072356;28;20032;-76
2023/07/11 07:54:26;;;;;;;7.47;3.60;;;38.50;37.50;;;;;;5072085;28;20032;-76
2023/07/11 07:56:52;;;;;;;11.90;3.75;;;38.40;36.60;;;;;;5071997;28;20031;-76
2023/07/11 07:59:19;;;;;;;4.55;3.88;;;38.40;35.40;;;;;;5071446;28;20035;-76
2023/07/11 08:01:45;;;;;;;6.82;3.20;;;37.80;36.50;;;;;;5070352;28;20107;-77
2023/07/11 08:04:10;;;;;;;4.82;3.30;;;37.90;35.90;;;;;;5072128;28;20090;-78
2023/07/11 08:06:36;;;;;;;6.63;3.42;;;37.70;35.10;;;;;;5072248;28;20048;-77
2023/07/11 08:09:02;;;;;;;7.30;3.88;;;37.80;35.20;;;;;;5075745;28;20020;-77
2023/07/11 08:11:28;;;;;;;4.60;3.45;;;37.70;35.70;;;;;;5075584;28;20044;-77
2023/07/11 08:13:53;;;;;;;6.45;3.90;;;37.80;35.90;;;;;;5074716;28;20064;-77
2023/07/11 08:16:19;;;;;;;7.28;3.83;;;37.60;35.80;;;;;;5075351;28;20115;-76
2023/07/11 08:18:45;;;;;;;5.97;4.07;;;37.40;36.00;;;;;;5075797;28;20052;-78
2023/07/11 08:21:11;;;;;;;8.18;4.07;;;37.30;36.40;;;;;;5075795;28;20058;-77
2023/07/11 08:23:36;;;;;;;5.43;3.40;;;37.40;36.70;;;;;;5075116;28;20025;-77
2023/07/11 08:26:02;;;;;;;8.55;3.75;;;37.10;36.80;;;;;;5075788;28;20095;-77
2023/07/11 08:28:27;;;;;;;6.32;3.97;;;37.00;37.00;;;;;;5075281;28;20380;-76
2023/07/11 08:30:53;;;;;;;8.48;4.22;;;36.50;38.20;;;;;;5075642;28;20040;-77
2023/07/11 08:33:19;;;;;;;8.35;3.80;;;36.60;39.30;;;;;;5075927;28;20579;-77
2023/07/11 08:35:44;;;;;;;5.72;3.85;;;36.50;38.20;;;;;;5075132;28;20025;-77
2023/07/11 08:38:13;;;;;;;5.38;4.05;;;36.40;37.80;;;;;;5075533;28;20025;-77
2023/07/11 08:40:43;;;;;;;8.95;3.90;;;36.10;38.40;;;;;;5074779;28;20031;-76
2023/07/11 08:43:14;;;;;;;8.18;4.03;;;35.50;39.70;;;;;;5075402;28;20458;-76
2023/07/11 08:46:06;;;;;;;8.75;4.05;;;35.50;39.00;;;;;;5075024;28;20048;-76
2023/07/11 08:48:58;;;;;;;5.63;3.78;;;35.00;40.50;;;;;;5074966;28;20044;-77
2023/07/11 08:51:37;;;;;;;9.43;4.35;;;34.60;41.60;;;;;;5074818;28;20040;-76
2023/07/11 08:54:14;;;;;;;5.97;4.18;;;34.50;41.80;;;;;;5075418;28;20028;-78
2023/07/11 08:56:45;;;;;;;7.53;4.30;;;34.40;41.30;;;;;;5074983;28;20105;-78
2023/07/11 08:59:41;;;;;;;6.72;4.55;;;34.00;41.40;;;;;;5075206;28;20035;-77
2023/07/11 09:02:09;;;;;;;7.78;4.18;;;33.90;42.00;;;;;;5075143;28;20499;-78
2023/07/11 09:04:42;;;;;;;8.20;4.68;;;34.00;42.00;;;;;;5074833;28;20036;-78
2023/07/11 09:07:29;;;;;;;5.25;4.07;;;34.00;42.20;;;;;;5074972;28;20055;-77
2023/07/11 09:09:56;;;;;;;8.80;4.38;;;33.90;42.30;;;;;;5074964;28;20032;-77
2023/07/11 09:12:33;;;;;;;7.10;4.70;;;33.80;42.20;;;;;;5073804;28;20036;-78
2023/07/11 09:15:21;;;;;;;8.55;4.18;;;33.50;42.90;;;;;;5074786;28;20025;-78
2023/07/11 09:18:18;;;;;;;5.80;3.95;;;33.60;43.20;;;;;;5074460;28;20039;-77
2023/07/11 09:20:55;;;;;;;5.43;4.22;;;33.50;42.80;;;;;;5062980;28;20453;-76
2023/07/11 09:23:33;;;;;;;4.43;4.00;;;33.30;43.70;;;;;;5076586;28;20028;-78
2023/07/11 09:26:02;;;;;;;7.38;4.28;;;33.50;43.80;;;;;;5074540;28;20021;-75
2023/07/11 09:28:30;;;;;;;6.20;4.78;;;33.50;43.10;;;;;;5074148;28;20025;-77
2023/07/11 09:30:57;;;;;;;5.80;4.35;;;33.50;42.70;;;;;;5074125;28;20053;-76
2023/07/11 09:33:32;;;;;;;7.20;4.38;;;33.20;42.00;;;;;;5073917;28;20039;-75
2023/07/11 09:36:00;;;;;;;8.27;4.13;;;33.20;42.50;;;;;;5074368;28;20492;-76
2023/07/11 09:38:37;;;;;;;9.73;4.18;;;33.20;42.10;;;;;;5074112;28;20036;-74
2023/07/11 09:41:13;;;;;;;8.30;4.22;;;33.10;41.90;;;;;;5071803;28;20470;-76
2023/07/11 09:43:39;;;;;;;6.97;4.18;;;32.90;41.80;;;;;;5053755;28;20366;-77
2023/07/11 09:46:13;;;;;;;4.93;3.80;;;33.00;43.00;;;;;;5054158;28;20032;-77
2023/07/11 09:48:40;;;;;;;9.30;4.28;;;33.00;44.00;;;;;;5053961;28;20025;-77
2023/07/11 09:51:13;;;;;;;4.13;3.72;;;33.10;43.90;;;;;;5053999;28;20040;-77
2023/07/11 09:53:44;;;;;;;5.57;4.43;;;33.10;43.40;;;;;;5052846;28;20561;-77
2023/07/11 09:56:16;;;;;;;8.55;4.05;;;33.20;43.90;;;;;;5054149;28;20020;-76
2023/07/11 09:58:47;;;;;;;9.00;4.95;;;33.10;43.80;;;;;;5053759;28;20040;-76
2023/07/11 10:01:22;;;;;;;6.32;4.65;;;33.20;43.60;;;;;;5054093;28;20029;-79
2023/07/11 10:03:48;;;;;;;7.10;4.18;;;33.20;43.50;;;;;;5053515;28;20025;-77
2023/07/11 10:06:29;;;;;;;8.30;4.68;;;33.10;44.10;;;;;;5053884;28;20032;-77
2023/07/11 10:08:54;;;;;;;6.55;4.63;;;33.10;43.10;;;;;;5053876;28;20063;-77
2023/07/11 10:11:22;;;;;;;6.00;4.15;;;33.00;43.50;;;;;;5053813;28;20441;-77
2023/07/11 10:13:54;;;;;;;5.97;4.13;;;33.10;43.80;;;;;;5051978;28;20478;-77
2023/07/11 10:16:20;;;;;;;5.30;4.30;;;33.10;43.00;;;;;;5053348;28;20029;-77
2023/07/11 10:18:46;;;;;;;8.13;4.55;;;33.00;43.40;;;;;;5053153;28;20409;-77
2023/07/11 10:21:12;;;;;;;5.50;4.13;;;33.00;42.90;;;;;;5052203;28;20071;-77
2023/07/11 10:23:38;;;;;;;6.22;4.22;;;32.90;43.00;;;;;;5053165;28;20027;-76
2023/07/11 10:26:26;;;;;;;5.78;4.25;;;33.00;43.00;;;;;;5053373;28;20025;-77
2023/07/11 10:29:10;;;;;;;11.13;4.40;;;33.00;43.00;;;;;;5053313;28;20059;-77
2023/07/11 10:31:58;;;;;;;6.60;4.13;;;33.10;42.90;;;;;;5068500;28;20046;-77
2023/07/11 10:34:35;;;;;;;8.20;4.03;;;33.10;42.50;;;;;;5073041;28;20183;-77
2023/07/11 10:37:08;;;;;;;7.70;4.45;;;33.10;42.90;;;;;;5073388;28;20459;-76
2023/07/11 10:39:44;;;;;;;5.07;4.15;;;33.00;42.70;;;;;;5072503;28;20123;-76
2023/07/11 10:42:18;;;;;;;7.53;4.55;;;32.80;42.80;;;;;;5072971;28;20036;-76
2023/07/11 10:44:48;;;;;;;7.20;4.40;;;32.60;43.40;;;;;;5072534;28;20062;-76
2023/07/11 10:47:27;;;;;;;10.30;5.00;;;32.70;43.70;;;;;;5072644;28;20045;-76
2023/07/11 10:49:56;;;;;;;10.23;5.30;;;32.80;43.50;;;;;;5072749;28;20035;-77
2023/07/11 10:52:24;;;;;;;5.57;4.53;;;32.80;42.90;;;;;;5072793;28;20041;-77
2023/07/11 10:55:11;;;;;;;5.25;4.07;;;32.60;43.10;;;;;;5072732;28;20082;-76
2023/07/11 10:57:39;;;;;;;9.82;4.57;;;32.60;43.60;;;;;;5072670;28;20090;-76
2023/07/11 11:00:16;;;;;;;7.75;4.00;;;32.40;43.10;;;;;;5073017;28;20037;-75
2023/07/11 11:03:08;;;;;;;5.68;4.50;;;32.40;43.50;;;;;;5071354;28;20028;-76
2023/07/11 11:05:53;;;;;;;5.50;4.35;;;32.50;43.60;;;;;;5072633;28;20040;-76
2023/07/11 11:08:41;;;;;;;6.35;4.40;;;32.60;43.80;;;;;;5072523;28;20028;-76
2023/07/11 11:11:12;;;;;;;8.20;4.40;;;32.60;43.30;;;;;;5072516;28;20424;-77
2023/07/11 11:13:48;;;;;;;13.18;4.60;;;32.60;43.20;;;;;;5072602;28;20513;-76
2023/07/11 11:16:22;;;;;;;6.07;4.45;;;32.60;43.00;;;;;;5071701;28;20096;-78
2023/07/11 11:19:13;;;;;;;4.45;4.00;;;32.40;43.20;;;;;;5072139;28;20039;-76
2023/07/11 11:21:59;;;;;;;5.50;4.55;;;32.40;43.40;;;;;;5063773;28;20048;-76
2023/07/11 11:24:50;;;;;;;7.68;4.68;;;32.30;43.60;;;;;;5071536;28;20060;-76
2023/07/11 11:27:38;;;;;;;;;;;32.40;43.70;;;;;;5073121;28;20111;-76
2023/07/11 11:30:19;;;;;;;7.90;4.50;;;32.30;43.60;;;;;;5072629;28;20352;-76
2023/07/11 11:32:52;;;;;;;8.35;5.32;;;32.30;43.30;;;;;;5072283;28;20036;-77
2023/07/11 11:35:27;;;;;;;7.90;4.70;;;32.30;43.80;;;;;;5072681;28;20028;-76
2023/07/11 11:38:04;;;;;;;7.28;4.85;;;32.50;44.30;;;;;;5072037;28;20113;-76
2023/07/11 11:40:33;;;;;;;6.70;4.70;;;32.60;43.90;;;;;;5071909;28;20029;-77
2023/07/11 11:43:09;;;;;;;6.05;4.47;;;32.80;43.70;;;;;;5074927;28;20367;-76
2023/07/11 11:45:35;;;;;;;8.15;4.85;;;32.90;43.40;;;;;;5075592;28;20020;-76
2023/07/11 11:48:03;;;;;;;7.15;4.50;;;33.00;43.30;;;;;;5076114;28;20059;-76
2023/07/11 11:50:31;;;;;;;6.57;4.72;;;33.00;43.20;;;;;;5076449;28;20326;-76
2023/07/11 11:53:15;;;;;;;8.68;4.88;;;33.00;43.00;;;;;;5075810;28;20077;-76
2023/07/11 11:55:56;;;;;;;8.25;5.07;;;33.10;43.30;;;;;;5075906;28;20385;-76
2023/07/11 11:58:24;;;;;;;6.93;5.18;;;33.10;43.20;;;;;;5076511;28;20028;-75
2023/07/11 12:00:54;;;;;;;6.00;4.97;;;33.10;42.90;;;;;;5075627;28;20496;-76
2023/07/11 12:03:32;;;;;;;6.35;4.53;;;32.90;42.80;;;;;;5076261;28;20029;-76
2023/07/11 12:06:03;;;;;;;7.30;5.53;;;32.80;43.20;;;;;;5075503;28;20051;-76
2023/07/11 12:08:36;;;;;;;7.70;5.35;;;32.70;43.10;;;;;;5076286;28;20033;-75
2023/07/11 12:11:17;;;;;;;9.45;4.88;;;32.30;43.70;;;;;;5076200;28;20481;-75
2023/07/11 12:13:44;;;;;;;7.53;4.93;;;32.30;44.10;;;;;;5075769;28;20067;-75
2023/07/11 12:16:22;;;;;;;5.43;4.63;;;32.30;44.50;;;;;;5076040;28;20052;-75
2023/07/11 12:18:52;;;;;;;6.05;4.82;;;32.30;45.10;;;;;;5075676;28;20028;-76
2023/07/11 12:21:23;;;;;;;;;;;32.40;44.70;;;;;;5076340;28;20028;-75
2023/07/11 12:23:53;;;;;;;7.60;6.30;;;32.40;44.40;;;;;;5075169;28;19946;-75
2023/07/11 12:26:24;;;;;;;6.85;4.97;;;32.40;44.90;;;;;;5075825;28;20047;-75
2023/07/11 12:28:53;;;;;;;6.70;4.93;;;32.40;43.90;;;;;;5075410;28;20496;-75
2023/07/11 12:31:25;;;;;;;10.50;4.97;;;32.30;44.30;;;;;;5075688;28;20024;-75
2023/07/11 12:34:11;;;;;;;7.88;5.05;;;32.30;44.90;;;;;;5075113;28;20103;-76
2023/07/11 12:37:00;;;;;;;6.53;5.10;;;32.40;44.80;;;;;;5055715;28;20082;-76
2023/07/11 12:39:48;;;;;;;8.13;5.75;;;32.40;44.70;;;;;;5055812;28;20037;-76
2023/07/11 12:42:44;;;;;;;9.23;4.80;;;32.40;44.60;;;;;;5054675;28;20074;-76
2023/07/11 12:45:20;;;;;;;9.80;5.80;;;32.40;44.60;;;;;;5055640;28;20116;-76
2023/07/11 12:47:49;;;;;;;7.43;4.85;;;32.40;43.90;;;;;;5054613;28;20118;-76
2023/07/11 12:50:23;;;;;;;6.90;5.15;;;32.30;44.30;;;;;;5055069;28;20025;-75
2023/07/11 12:53:03;;;;;;;7.35;5.53;;;32.30;44.60;;;;;;5054173;28;20021;-76
2023/07/11 12:55:30;;;;;;;8.95;5.07;;;32.30;44.40;;;;;;5055106;28;20037;-76